Ballston Lake, New York
Current Conditions -  °F | °C
As of 3:51 AM on Monday 22 Dec 2014 (Local Time) from KALB Reporting Station
Light Snow Light Snow  
Wind Chill: 25°   Ceiling: 2500
Heat Index: 30°   Visibility: 8mi
Dew Point: 23°   Wind: 5mph
Humidity: 75%   Direction: 340°NNW
Pressure: 30.36"   Gusts: NA
Location:  42.91°N, 73.87°W
Report Text: KALB 220851Z 34004KT 8SM -SN BKN025 OVC031 M01/M05 A3036 RMK AO2 SNE00B49 SLP286 P0000 60000 T10111050 55001
Loading
Personal Weather Stations






























Interactive Weather Map New forecast layout! Learn more

10-Day Weather Forecast

Advertisements
Track Severe Weather on mobile